Time;durP1;ratioP1;P1;durP2;ratioP2;P2;SDS_P1;SDS_P2;PMS_P1;PMS_P2;Temp;Humidity;BMP_temperature;BMP_pressure;BME280_temperature;BME280_humidity;BME280_pressure;Samples;Min_cycle;Max_cycle;Signal;HPM_P1;HPM_P2
2024/01/11 00:01:48;;;;;;;83.97;38.60;;;;;;;-4.42;71.40;102736.97;5034820;28;20198;-83
2024/01/11 00:04:15;;;;;;;71.87;37.33;;;;;;;-4.51;71.06;102745.53;5030647;28;20246;-85
2024/01/11 00:09:42;;;;;;;77.67;38.03;;;;;;;-4.55;71.32;102746.94;5032473;28;20198;-84
2024/01/11 00:12:09;;;;;;;70.97;35.83;;;;;;;-4.63;71.09;102742.91;5030513;28;20222;-83
2024/01/11 00:14:37;;;;;;;73.20;37.40;;;;;;;-4.67;71.21;102738.31;5029958;28;20244;-83
2024/01/11 00:17:05;;;;;;;79.77;38.57;;;;;;;-4.63;71.34;102735.25;5034159;28;20222;-83
2024/01/11 00:19:31;;;;;;;75.40;37.23;;;;;;;-4.83;71.77;102749.81;5037639;28;20202;-83
2024/01/11 00:21:58;;;;;;;76.60;37.90;;;;;;;-4.88;72.39;102735.81;5037868;28;20232;-83
2024/01/11 00:24:25;;;;;;;85.00;37.57;;;;;;;-4.81;71.74;102732.13;5037013;28;20203;-84
2024/01/11 00:26:51;;;;;;;87.73;39.50;;;;;;;-4.84;71.44;102740.38;5036856;28;20234;-84
2024/01/11 00:29:18;;;;;;;74.97;37.13;;;;;;;-4.94;71.61;102753.16;5037362;28;20206;-83
2024/01/11 00:31:44;;;;;;;77.13;39.33;;;;;;;-4.86;71.82;102741.03;5036615;28;20238;-84
2024/01/11 00:34:13;;;;;;;69.30;35.33;;;;;;;-4.90;71.56;102729.72;5037239;28;20222;-84
2024/01/11 00:36:39;;;;;;;71.47;35.60;;;;;;;-4.87;71.00;102742.69;5037183;28;20229;-82
2024/01/11 00:39:06;;;;;;;77.17;38.60;;;;;;;-4.94;70.16;102748.06;5036372;28;20304;-83
2024/01/11 00:41:32;;;;;;;75.83;37.03;;;;;;;-5.02;70.24;102762.72;5036544;28;20228;-84
2024/01/11 00:43:59;;;;;;;75.73;36.23;;;;;;;-5.12;70.76;102767.81;5037429;28;20203;-82
2024/01/11 00:46:25;;;;;;;74.70;36.63;;;;;;;-5.18;71.52;102762.22;5040083;28;20218;-83
2024/01/11 00:48:52;;;;;;;71.00;36.97;;;;;;;-5.13;71.23;102755.88;5044803;28;20696;-85
2024/01/11 00:51:20;;;;;;;76.83;35.10;;;;;;;-4.94;71.71;102744.63;5036465;28;20228;-84
2024/01/11 00:53:46;;;;;;;71.90;36.00;;;;;;;-4.87;72.28;102736.72;5037065;28;20673;-84
2024/01/11 00:56:16;;;;;;;72.67;36.03;;;;;;;-4.86;72.48;102730.84;5036666;28;20241;-84
2024/01/11 00:58:43;;;;;;;79.60;36.07;;;;;;;-4.97;72.59;102722.34;5036605;28;20226;-83
2024/01/11 01:01:10;;;;;;;68.70;34.93;;;;;;;-4.88;73.01;102714.56;5036334;28;20584;-84
2024/01/11 01:03:36;;;;;;;77.50;35.43;;;;;;;-4.87;72.75;102701.06;5035539;28;20210;-82
2024/01/11 01:06:04;;;;;;;68.33;33.13;;;;;;;-4.77;72.52;102685.75;5036352;28;20226;-84
2024/01/11 01:08:32;;;;;;;61.00;31.33;;;;;;;-4.74;72.63;102677.44;5028567;28;20213;-84
2024/01/11 01:10:59;;;;;;;59.20;31.13;;;;;;;-4.84;72.28;102689.44;5036544;28;20209;-83
2024/01/11 01:13:26;;;;;;;58.90;29.93;;;;;;;-4.84;71.93;102703.84;5032449;28;20213;-84
2024/01/11 01:15:52;;;;;;;57.80;30.17;;;;;;;-4.91;71.11;102710.13;5036250;28;20602;-83
2024/01/11 01:18:19;;;;;;;51.27;29.37;;;;;;;-4.93;71.52;102721.84;5035798;28;20217;-84
2024/01/11 01:20:46;;;;;;;52.70;28.67;;;;;;;-4.85;70.90;102732.66;5036444;28;20209;-85
2024/01/11 01:23:12;;;;;;;60.70;30.43;;;;;;;-4.96;70.57;102747.03;5033661;28;20577;-83
2024/01/11 01:25:41;;;;;;;62.00;31.43;;;;;;;-4.91;70.52;102748.31;5036018;28;20233;-83
2024/01/11 01:28:07;;;;;;;56.63;30.57;;;;;;;-5.02;71.23;102744.88;5044130;28;20214;-85
2024/01/11 01:30:34;;;;;;;59.67;29.73;;;;;;;-4.94;71.02;102732.78;5035849;28;20210;-84
2024/01/11 01:33:00;;;;;;;65.87;31.63;;;;;;;-4.98;71.57;102738.38;5036072;28;20241;-84
2024/01/11 01:35:26;;;;;;;60.67;30.57;;;;;;;-5.08;71.90;102741.84;5036045;28;20311;-83
2024/01/11 01:37:53;;;;;;;61.73;30.90;;;;;;;-4.98;71.33;102718.00;5035837;28;20233;-84
2024/01/11 01:40:19;;;;;;;62.37;32.40;;;;;;;-4.90;71.45;102716.97;5035856;28;20205;-84
2024/01/11 01:42:47;;;;;;;70.47;34.07;;;;;;;-4.83;71.45;102708.19;5035677;28;20206;-84
2024/01/11 01:45:16;;;;;;;63.43;33.23;;;;;;;-4.85;71.75;102707.19;5036134;28;20230;-84
2024/01/11 01:47:44;;;;;;;76.97;34.27;;;;;;;-4.96;71.66;102702.88;5035697;28;20579;-83
2024/01/11 01:50:12;;;;;;;72.60;33.90;;;;;;;-4.94;70.58;102724.25;5035716;28;20605;-84
2024/01/11 01:52:42;;;;;;;65.03;31.97;;;;;;;-5.00;70.72;102728.06;5035733;28;20229;-83
2024/01/11 01:55:11;;;;;;;67.00;33.67;;;;;;;-5.01;70.70;102741.59;5036277;28;20234;-85
2024/01/11 01:57:38;;;;;;;66.40;32.50;;;;;;;-5.13;70.40;102757.50;5051807;28;20206;-84
2024/01/11 02:00:09;;;;;;;62.10;33.97;;;;;;;-5.22;71.06;102758.53;5036565;28;20218;-83
2024/01/11 02:02:36;;;;;;;67.33;33.00;;;;;;;-5.13;71.18;102744.78;5028669;28;20211;-85
2024/01/11 02:05:03;;;;;;;61.00;33.07;;;;;;;-5.25;71.48;102748.13;5035936;28;20221;-84
2024/01/11 02:07:29;;;;;;;70.17;34.93;;;;;;;-5.07;71.66;102727.47;5036397;28;20209;-84
2024/01/11 02:09:56;;;;;;;70.10;33.17;;;;;;;-5.01;71.93;102723.75;5035442;28;20214;-85
2024/01/11 02:12:24;;;;;;;63.40;32.90;;;;;;;-4.99;71.26;102727.31;5036802;28;20241;-85
2024/01/11 02:14:51;;;;;;;72.83;33.10;;;;;;;-4.98;70.57;102761.31;5036472;28;20201;-83
2024/01/11 02:17:18;;;;;;;69.93;33.80;;;;;;;-5.11;70.49;102769.63;5035317;28;20247;-85
2024/01/11 02:19:45;;;;;;;59.30;31.27;;;;;;;-5.07;70.87;102769.09;5036309;28;20634;-85
2024/01/11 02:22:19;;;;;;;61.50;30.43;;;;;;;-5.25;70.39;102781.19;5036579;28;20241;-85
2024/01/11 02:24:47;;;;;;;61.00;29.63;;;;;;;-5.25;70.88;102768.47;5036379;28;20201;-84
2024/01/11 02:27:13;;;;;;;55.23;29.40;;;;;;;-5.28;70.86;102770.75;5044723;28;20205;-84
2024/01/11 02:29:40;;;;;;;57.67;29.30;;;;;;;-5.29;71.08;102757.88;5044638;28;20205;-86
2024/01/11 02:32:08;;;;;;;59.13;28.70;;;;;;;-5.12;71.52;102749.13;5035818;28;20222;-85
2024/01/11 02:34:35;;;;;;;56.43;28.73;;;;;;;-5.13;71.30;102754.94;5036394;28;20201;-84
2024/01/11 02:37:01;;;;;;;60.33;29.57;;;;;;;-5.25;71.69;102747.22;5036557;28;20230;-84
2024/01/11 02:39:28;;;;;;;66.90;31.93;;;;;;;-5.19;71.45;102746.06;5035356;28;20259;-86
2024/01/11 02:41:57;;;;;;;46.90;27.37;;;;;;;-5.13;72.34;102740.59;5035572;28;20273;-85
2024/01/11 02:44:23;;;;;;;51.67;27.73;;;;;;;-5.59;72.68;102744.41;5036323;28;20671;-87
2024/01/11 02:46:50;;;;;;;41.30;25.13;;;;;;;-5.57;73.44;102719.97;5035560;28;20280;-85
2024/01/11 02:49:16;;;;;;;46.47;25.07;;;;;;;-5.38;73.32;102700.38;5035678;28;20208;-85
2024/01/11 02:51:42;;;;;;;35.23;21.40;;;;;;;-5.40;73.13;102681.56;5035791;28;20234;-86
2024/01/11 02:54:09;;;;;;;32.57;21.37;;;;;;;-5.26;73.00;102662.31;5035664;28;20214;-86
2024/01/11 02:56:35;;;;;;;34.93;19.23;;;;;;;-5.24;72.82;102670.09;5035185;28;20736;-85
2024/01/11 02:59:03;;;;;;;38.87;22.03;;;;;;;-5.39;72.85;102668.06;5034981;28;20214;-85
2024/01/11 03:01:30;;;;;;;29.60;19.20;;;;;;;-5.18;72.23;102651.09;5035194;28;20268;-85
2024/01/11 03:03:57;;;;;;;40.20;21.70;;;;;;;-5.20;71.90;102654.28;5034763;28;20202;-85
2024/01/11 03:06:23;;;;;;;36.40;22.33;;;;;;;-5.21;70.72;102673.78;5036419;28;20237;-84
2024/01/11 03:08:50;;;;;;;35.20;21.17;;;;;;;-5.12;71.34;102670.19;5036968;28;20205;-85
2024/01/11 03:11:17;;;;;;;36.13;22.43;;;;;;;-5.18;71.82;102670.56;5037122;28;20221;-85
2024/01/11 03:13:43;;;;;;;39.07;22.70;;;;;;;-5.24;71.77;102665.00;5047872;28;20696;-85
2024/01/11 03:16:11;;;;;;;35.20;21.17;;;;;;;-5.21;71.35;102667.81;5048777;28;20229;-83
2024/01/11 03:18:37;;;;;;;38.77;20.23;;;;;;;-5.22;71.13;102682.16;5051075;28;20202;-83
2024/01/11 03:21:04;;;;;;;34.33;20.37;;;;;;;-5.26;70.78;102697.06;5050028;28;20209;-83
2024/01/11 03:23:31;;;;;;;38.63;22.30;;;;;;;-5.31;70.99;102708.50;5048911;28;20252;-83
2024/01/11 03:25:57;;;;;;;40.00;22.67;;;;;;;-5.29;70.49;102720.63;5042549;28;20702;-85
2024/01/11 03:28:24;;;;;;;41.93;24.13;;;;;;;-5.30;70.34;102720.50;5033647;28;20669;-85
2024/01/11 03:30:50;;;;;;;43.97;24.17;;;;;;;-5.41;69.84;102735.78;5033503;28;20206;-85
2024/01/11 03:33:18;;;;;;;45.60;23.40;;;;;;;-5.41;69.90;102738.31;5032822;28;20272;-83
2024/01/11 03:35:44;;;;;;;55.30;28.30;;;;;;;-5.43;70.40;102744.03;5033989;28;20224;-85
2024/01/11 03:38:10;;;;;;;69.70;31.67;;;;;;;-5.35;70.68;102734.47;5033390;28;20228;-82
2024/01/11 03:40:37;;;;;;;60.67;31.00;;;;;;;-5.42;71.15;102725.47;5033964;28;20210;-84
2024/01/11 03:43:04;;;;;;;60.53;30.93;;;;;;;-5.56;72.21;102719.22;5033701;28;20217;-85
2024/01/11 03:45:31;;;;;;;64.50;30.53;;;;;;;-5.45;72.95;102698.13;5033362;28;20229;-84
2024/01/11 03:47:57;;;;;;;53.73;28.63;;;;;;;-5.82;74.75;102694.16;5032982;28;20216;-85
2024/01/11 03:50:25;;;;;;;62.80;30.90;;;;;;;-5.96;75.38;102661.66;5033914;28;20217;-84
2024/01/11 03:52:51;;;;;;;57.43;27.87;;;;;;;-6.07;76.49;102638.72;5033420;28;20225;-85
2024/01/11 03:55:17;;;;;;;65.23;30.27;;;;;;;-6.50;78.83;102612.25;5033461;28;20296;-82
2024/01/11 03:57:44;;;;;;;69.63;32.20;;;;;;;-6.49;79.90;102570.84;5033431;28;20588;-84
2024/01/11 04:00:11;;;;;;;69.40;32.30;;;;;;;-6.73;81.67;102526.50;5033109;28;20217;-84
2024/01/11 04:02:37;;;;;;;65.40;30.57;;;;;;;-6.76;82.27;102489.78;5033010;28;20202;-83
2024/01/11 04:05:04;;;;;;;74.00;34.97;;;;;;;-6.72;83.08;102441.03;5033283;28;20287;-84
2024/01/11 04:07:32;;;;;;;72.37;34.70;;;;;;;-6.30;82.27;102402.13;5032878;28;20918;-84
2024/01/11 04:09:58;;;;;;;67.23;33.50;;;;;;;-6.14;81.45;102391.53;5033372;28;20244;-83
2024/01/11 04:12:25;;;;;;;69.90;33.77;;;;;;;-6.11;80.53;102395.22;5032829;28;20229;-83
2024/01/11 04:14:51;;;;;;;71.87;34.10;;;;;;;-6.43;81.18;102402.81;5033235;28;20213;-83
2024/01/11 04:17:17;;;;;;;73.87;33.33;;;;;;;-6.56;81.67;102389.84;5032311;28;20676;-83
2024/01/11 04:19:44;;;;;;;66.40;32.63;;;;;;;-6.64;82.76;102371.44;5033131;28;20667;-82
2024/01/11 04:22:10;;;;;;;71.53;33.73;;;;;;;-6.50;82.27;102350.63;5033687;28;20214;-84
2024/01/11 04:24:38;;;;;;;68.23;31.57;;;;;;;-6.40;82.35;102330.28;5032821;28;20279;-83
2024/01/11 04:27:04;;;;;;;64.03;31.70;;;;;;;-6.19;81.73;102322.56;5033024;28;20229;-83
2024/01/11 04:29:31;;;;;;;65.07;31.13;;;;;;;-6.31;81.47;102335.19;5032889;28;20206;-83
2024/01/11 04:31:58;;;;;;;67.73;33.00;;;;;;;-6.29;81.51;102320.94;5032728;28;20272;-82
2024/01/11 04:34:24;;;;;;;67.00;33.47;;;;;;;-5.99;81.20;102306.34;5036315;28;20209;-83
2024/01/11 04:36:51;;;;;;;64.57;32.53;;;;;;;-5.85;80.57;102318.44;5036758;28;20226;-85
2024/01/11 04:39:17;;;;;;;58.13;29.73;;;;;;;-5.76;79.64;102323.34;5037958;28;20256;-84
2024/01/11 04:41:45;;;;;;;65.00;31.67;;;;;;;-5.60;79.75;102318.66;5037223;28;20206;-84
2024/01/11 04:44:11;;;;;;;66.33;31.97;;;;;;;-5.65;78.67;102327.63;5038294;28;20284;-84
2024/01/11 04:46:37;;;;;;;61.07;30.83;;;;;;;-5.59;78.04;102323.00;5037538;28;20226;-85
2024/01/11 04:49:04;;;;;;;64.07;30.73;;;;;;;-5.53;78.01;102344.56;5037387;28;20861;-84
2024/01/11 04:51:30;;;;;;;67.30;33.13;;;;;;;-5.61;77.70;102380.50;5037200;28;20673;-85
2024/01/11 04:53:57;;;;;;;64.20;32.30;;;;;;;-5.36;77.25;102395.13;5041798;28;20252;-85
2024/01/11 04:56:23;;;;;;;64.27;31.50;;;;;;;-5.23;76.96;102422.41;5040000;28;20241;-84
2024/01/11 04:58:51;;;;;;;57.23;31.27;;;;;;;-5.13;76.39;102437.63;5045234;28;20641;-84
2024/01/11 05:01:18;;;;;;;58.53;29.40;;;;;;;-5.12;75.82;102443.59;5036885;28;20202;-84
2024/01/11 05:03:46;;;;;;;59.27;29.03;;;;;;;-5.07;74.43;102477.94;5037004;28;20202;-84
2024/01/11 05:06:16;;;;;;;57.70;30.13;;;;;;;-5.04;73.69;102509.59;5037171;28;20579;-84
2024/01/11 05:08:42;;;;;;;57.50;29.20;;;;;;;-5.15;73.42;102529.91;5036864;28;20292;-84
2024/01/11 05:11:15;;;;;;;50.50;26.73;;;;;;;-5.16;72.65;102559.56;5036476;28;20213;-83
2024/01/11 05:13:41;;;;;;;58.40;28.33;;;;;;;-5.43;73.05;102596.44;5037126;28;20242;-84
2024/01/11 05:16:18;;;;;;;55.83;27.40;;;;;;;-5.33;72.73;102611.69;5036466;28;20778;-84
2024/01/11 05:18:44;;;;;;;55.40;28.97;;;;;;;-5.35;72.87;102625.03;5036952;28;20202;-84
2024/01/11 05:21:11;;;;;;;56.87;29.80;;;;;;;-5.34;72.76;102631.94;5036412;28;20205;-83
2024/01/11 05:23:37;;;;;;;53.57;28.67;;;;;;;-5.32;72.24;102656.72;5035983;28;20206;-83
2024/01/11 05:26:04;;;;;;;51.87;28.33;;;;;;;-5.46;72.38;102677.63;5036443;28;20592;-83
2024/01/11 05:28:30;;;;;;;56.13;28.40;;;;;;;-5.25;72.77;102670.88;5036605;28;20201;-84
2024/01/11 05:30:57;;;;;;;60.40;29.97;;;;;;;-5.20;72.61;102677.19;5036241;28;20248;-84
2024/01/11 05:33:25;;;;;;;72.13;32.17;;;;;;;-5.31;73.57;102681.44;5036796;28;20313;-82
2024/01/11 05:35:53;;;;;;;68.83;32.90;;;;;;;-5.21;74.23;102678.88;5037383;28;20258;-83
2024/01/11 05:38:20;;;;;;;66.80;32.37;;;;;;;-5.16;74.59;102671.59;5037487;28;20214;-82
2024/01/11 05:40:46;;;;;;;62.90;32.70;;;;;;;-5.06;73.98;102661.38;5035924;28;20210;-83
2024/01/11 05:43:13;;;;;;;61.67;30.47;;;;;;;-5.59;75.18;102663.00;5036442;28;20209;-84
2024/01/11 05:45:39;;;;;;;64.20;32.50;;;;;;;-5.74;75.28;102656.66;5036494;28;20292;-83
2024/01/11 05:48:06;;;;;;;65.73;33.13;;;;;;;-6.37;76.77;102642.13;5036148;28;20214;-83
2024/01/11 05:50:34;;;;;;;70.27;34.13;;;;;;;-6.68;79.21;102603.97;5036116;28;20656;-83
2024/01/11 05:53:01;;;;;;;62.73;31.73;;;;;;;-6.52;79.82;102546.81;5039112;28;20707;-82
2024/01/11 05:55:27;;;;;;;72.53;33.67;;;;;;;-6.20;80.05;102509.75;5044567;28;20238;-83
2024/01/11 05:57:54;;;;;;;68.37;33.73;;;;;;;-6.29;80.40;102477.59;5035187;28;20207;-82
2024/01/11 06:00:22;;;;;;;74.30;35.23;;;;;;;-6.27;80.85;102455.75;5035517;28;20210;-84
2024/01/11 06:02:48;;;;;;;71.93;32.43;;;;;;;-6.04;80.38;102438.19;5034909;28;20606;-83
2024/01/11 06:05:15;;;;;;;71.20;35.43;;;;;;;-6.02;80.14;102446.81;5034680;28;20237;-82
2024/01/11 06:07:43;;;;;;;71.53;34.53;;;;;;;-6.45;81.70;102442.44;5034848;28;20205;-82
2024/01/11 06:10:10;;;;;;;74.27;35.40;;;;;;;-6.33;81.93;102405.31;5034709;28;20617;-82
2024/01/11 06:12:36;;;;;;;77.23;35.57;;;;;;;-6.26;81.29;102388.94;5034986;28;20235;-80
2024/01/11 06:15:03;;;;;;;71.27;35.20;;;;;;;-6.31;81.33;102359.72;5034948;28;20775;-82
2024/01/11 06:17:30;;;;;;;72.37;33.73;;;;;;;-6.09;81.09;102341.97;5033982;28;20228;-81
2024/01/11 06:19:59;;;;;;;65.93;34.57;;;;;;;-6.19;80.75;102340.34;5034732;28;20213;-81
2024/01/11 06:22:26;;;;;;;77.50;37.27;;;;;;;-6.23;80.83;102363.75;5034783;28;20216;-84
2024/01/11 06:24:54;;;;;;;76.60;36.83;;;;;;;-6.33;81.12;102372.28;5026645;28;20210;-81
2024/01/11 06:27:20;;;;;;;77.60;36.37;;;;;;;-6.42;80.89;102375.00;5034827;28;20216;-81
2024/01/11 06:29:47;;;;;;;75.00;34.60;;;;;;;-6.43;81.54;102362.16;5035390;28;20237;-81
2024/01/11 06:32:13;;;;;;;80.60;36.73;;;;;;;-6.64;81.87;102358.75;5034138;28;20209;-83
2024/01/11 06:34:45;;;;;;;70.30;35.03;;;;;;;-6.74;82.39;102343.53;5034269;28;20235;-83
2024/01/11 06:37:12;;;;;;;72.43;35.90;;;;;;;-6.83;83.16;102315.75;5034602;28;20692;-82
2024/01/11 06:39:38;;;;;;;83.30;36.67;;;;;;;-6.71;82.55;102308.25;5034919;28;20221;-83
2024/01/11 06:42:07;;;;;;;75.27;36.93;;;;;;;-6.41;82.27;102304.75;5033813;28;20219;-82
2024/01/11 06:44:34;;;;;;;77.23;34.30;;;;;;;-6.16;81.66;102309.19;5034142;28;20213;-80
2024/01/11 06:47:01;;;;;;;73.00;34.70;;;;;;;-5.88;80.54;102322.41;5033673;28;20224;-81
2024/01/11 06:49:28;;;;;;;70.90;35.23;;;;;;;-5.96;79.70;102337.09;5034762;28;20636;-82
2024/01/11 06:51:55;;;;;;;70.97;34.70;;;;;;;-6.10;79.28;102373.25;5037903;28;20224;-83
2024/01/11 06:54:21;;;;;;;67.47;35.80;;;;;;;-6.25;79.71;102399.19;5033418;28;20780;-82
2024/01/11 06:56:48;;;;;;;76.70;35.37;;;;;;;-6.63;80.77;102398.63;5034085;28;20241;-82
2024/01/11 06:59:17;;;;;;;77.97;37.80;;;;;;;-6.64;81.73;102376.53;5034430;28;20209;-83
2024/01/11 07:01:44;;;;;;;73.43;35.63;;;;;;;-6.89;82.95;102360.94;5032458;28;20719;-83
2024/01/11 07:04:12;;;;;;;71.63;34.33;;;;;;;-6.62;83.06;102334.38;5034335;28;20216;-83
2024/01/11 07:06:39;;;;;;;88.37;37.23;;;;;;;-6.82;83.90;102322.59;5033610;28;20220;-82
2024/01/11 07:09:06;;;;;;;90.23;40.97;;;;;;;-7.00;85.08;102311.81;5033662;28;20200;-82
2024/01/11 07:11:33;;;;;;;84.60;38.17;;;;;;;-6.94;85.79;102275.91;5033905;28;20218;-82
2024/01/11 07:13:59;;;;;;;75.50;35.37;;;;;;;-6.92;86.32;102239.72;5033793;28;20228;-82
2024/01/11 07:16:27;;;;;;;73.97;35.70;;;;;;;-6.89;86.07;102229.84;5034022;28;20305;-83
2024/01/11 07:18:54;;;;;;;75.50;36.60;;;;;;;-6.83;86.39;102210.00;5033399;28;20212;-82
2024/01/11 07:21:29;;;;;;;81.63;37.53;;;;;;;-6.84;86.84;102198.09;5034036;28;20216;-83
2024/01/11 07:23:56;;;;;;;81.30;37.13;;;;;;;-6.44;86.00;102193.63;5037732;28;20210;-81
2024/01/11 07:26:23;;;;;;;79.97;35.20;;;;;;;-6.07;85.36;102198.09;5089329;22;20249;-82
2024/01/11 07:28:49;;;;;;;80.53;37.80;;;;;;;-6.11;83.69;102219.84;5034955;28;20212;-81
2024/01/11 07:31:15;;;;;;;80.47;35.37;;;;;;;-5.87;83.31;102237.72;5044611;28;20208;-81
2024/01/11 07:33:43;;;;;;;77.93;37.90;;;;;;;-6.26;82.32;102265.31;5036331;28;20283;-81
2024/01/11 07:36:10;;;;;;;72.23;34.23;;;;;;;-6.04;82.59;102285.66;5028151;28;20762;-81
2024/01/11 07:38:36;;;;;;;86.03;41.37;;;;;;;-5.69;81.81;102299.28;5015992;28;20744;-82
2024/01/11 07:41:02;;;;;;;87.50;38.87;;;;;;;-5.54;80.63;102320.81;5023820;28;20269;-82
2024/01/11 07:43:29;;;;;;;85.60;40.60;;;;;;;-5.48;79.90;102333.13;5016767;28;20228;-79
2024/01/11 07:45:56;;;;;;;82.97;39.90;;;;;;;-5.50;79.69;102373.69;5027825;28;20808;-78
2024/01/11 07:48:22;;;;;;;82.80;39.47;;;;;;;-5.35;79.72;102403.63;5026736;28;20198;-81
2024/01/11 07:50:50;;;;;;;83.73;38.23;;;;;;;-5.42;79.34;102435.38;5016134;28;20210;-81
2024/01/11 07:53:16;;;;;;;82.87;38.53;;;;;;;-5.45;79.24;102448.75;5009800;28;20226;-81
2024/01/11 07:55:43;;;;;;;75.40;36.00;;;;;;;-5.63;79.93;102455.81;4998639;28;20273;-81
2024/01/11 07:58:11;;;;;;;76.80;36.93;;;;;;;-5.82;80.23;102466.16;5014245;28;20695;-80
2024/01/11 08:00:38;;;;;;;61.13;31.30;;;;;;;-6.27;81.63;102455.75;5014042;28;20296;-81
2024/01/11 08:03:05;;;;;;;64.07;31.03;;;;;;;-6.44;82.99;102432.41;5014169;28;20210;-80
2024/01/11 08:05:31;;;;;;;59.10;31.33;;;;;;;-6.52;83.97;102404.59;5013933;28;20225;-81
2024/01/11 08:08:01;;;;;;;59.40;29.83;;;;;;;-6.45;84.27;102371.31;5013771;28;20260;-82
2024/01/11 08:10:28;;;;;;;64.33;30.00;;;;;;;-6.42;84.11;102356.28;5014412;28;20281;-82
2024/01/11 08:12:55;;;;;;;62.83;31.93;;;;;;;-6.56;84.45;102339.97;5016561;28;20264;-81
2024/01/11 08:15:21;;;;;;;57.80;29.83;;;;;;;-6.56;85.20;102327.28;5018325;28;20293;-81
2024/01/11 08:17:48;;;;;;;68.30;32.87;;;;;;;-6.60;85.99;102299.81;5021404;28;20205;-82
2024/01/11 08:20:15;;;;;;;65.97;30.13;;;;;;;-6.51;85.96;102285.31;5022529;28;20278;-82
2024/01/11 08:22:43;;;;;;;68.20;33.43;;;;;;;-6.59;85.63;102291.44;5021845;28;20213;-81
2024/01/11 08:25:10;;;;;;;64.10;30.97;;;;;;;-6.59;86.21;102268.59;5002880;28;20283;-81
2024/01/11 08:27:37;;;;;;;66.90;32.90;;;;;;;-6.52;86.75;102255.63;5017319;28;20234;-81
2024/01/11 08:30:05;;;;;;;71.13;31.60;;;;;;;-6.64;87.01;102241.94;5025956;28;20245;-82
2024/01/11 08:32:37;;;;;;;66.83;32.13;;;;;;;-6.55;86.88;102232.50;5023882;28;20203;-82
2024/01/11 08:35:04;;;;;;;65.27;30.93;;;;;;;-6.27;86.97;102221.97;5011748;28;20234;-82
2024/01/11 08:37:31;;;;;;;63.07;32.37;;;;;;;-6.13;85.70;102226.47;5017927;28;20707;-81
2024/01/11 08:39:57;;;;;;;62.63;31.00;;;;;;;-6.20;85.44;102249.66;5019462;28;20747;-81
2024/01/11 08:42:25;;;;;;;66.83;30.97;;;;;;;-6.30;85.33;102252.22;5027711;28;20260;-82
2024/01/11 08:44:52;;;;;;;57.60;31.07;;;;;;;-6.50;86.26;102256.63;5031766;28;20205;-82
2024/01/11 08:47:18;;;;;;;56.43;29.03;;;;;;;-6.15;85.46;102238.16;5023358;28;20216;-82
2024/01/11 08:49:44;;;;;;;58.87;28.40;;;;;;;-6.09;85.62;102231.00;5030758;28;20556;-82
2024/01/11 08:52:11;;;;;;;50.73;29.53;;;;;;;-6.45;86.24;102236.66;5022907;28;20210;-82
2024/01/11 08:54:37;;;;;;;67.37;29.23;;;;;;;-6.21;86.85;102222.44;5022468;28;20280;-82
2024/01/11 08:57:04;;;;;;;40.63;26.13;;;;;;;-6.30;87.27;102217.56;5013908;28;20206;-82
2024/01/11 08:59:32;;;;;;;54.63;27.93;;;;;;;-6.26;87.12;102205.97;5019876;28;20217;-82
2024/01/11 09:01:59;;;;;;;56.00;27.73;;;;;;;-6.09;87.64;102187.81;5026383;28;20217;-82
2024/01/11 09:04:28;;;;;;;49.00;26.17;;;;;;;-5.89;87.12;102198.56;5018081;28;20195;-83
2024/01/11 09:06:55;;;;;;;50.07;26.90;;;;;;;-5.53;85.93;102205.56;5013128;28;20244;-82
2024/01/11 09:09:22;;;;;;;49.50;26.47;;;;;;;-5.52;84.86;102226.81;5015370;28;20241;-83
2024/01/11 09:11:49;;;;;;;54.77;25.63;;;;;;;-5.22;84.76;102243.44;5016028;28;20244;-82
2024/01/11 09:14:16;;;;;;;52.97;26.37;;;;;;;-5.28;84.00;102261.69;5015369;28;20600;-83
2024/01/11 09:16:44;;;;;;;59.30;27.77;;;;;;;-5.34;83.66;102275.63;5014127;28;20229;-81
2024/01/11 09:19:10;;;;;;;44.17;25.77;;;;;;;-5.26;83.90;102277.97;5014661;28;20710;-82
2024/01/11 09:21:37;;;;;;;45.37;25.20;;;;;;;-5.71;84.62;102293.19;5014979;28;20217;-82
2024/01/11 09:24:04;;;;;;;48.10;24.17;;;;;;;-5.88;85.88;102272.44;5002344;28;20223;-82
2024/01/11 09:26:30;;;;;;;49.10;28.17;;;;;;;-6.04;86.86;102252.59;5001469;28;20234;-81
2024/01/11 09:28:57;;;;;;;43.53;24.80;;;;;;;-5.60;87.29;102224.56;5014889;28;20440;-82
2024/01/11 09:31:24;;;;;;;53.33;27.50;;;;;;;-5.68;86.80;102235.81;5021066;28;20296;-81
2024/01/11 09:33:52;;;;;;;47.97;26.23;;;;;;;-5.51;86.58;102243.81;5014488;28;20277;-81
2024/01/11 09:36:19;;;;;;;46.43;26.13;;;;;;;-5.51;87.02;102246.38;5015884;28;20238;-82
2024/01/11 09:38:45;;;;;;;48.30;25.30;;;;;;;-5.19;86.43;102253.88;5015062;28;20200;-82
2024/01/11 09:41:14;;;;;;;53.97;26.97;;;;;;;-4.91;85.88;102254.25;5015740;28;20206;-83
2024/01/11 09:43:41;;;;;;;51.77;27.93;;;;;;;-5.01;85.61;102260.31;5019965;28;20233;-82
2024/01/11 09:46:10;;;;;;;54.93;27.73;;;;;;;-4.71;84.81;102257.34;5020425;28;20624;-82
2024/01/11 09:48:39;;;;;;;48.73;26.73;;;;;;;-4.70;85.25;102276.94;5020828;28;20261;-81
2024/01/11 09:51:10;;;;;;;43.23;24.23;;;;;;;-4.73;84.59;102289.47;5023247;28;20194;-80
2024/01/11 09:53:39;;;;;;;43.57;23.20;;;;;;;-4.49;84.50;102285.25;5013244;28;20210;-80
2024/01/11 09:56:09;;;;;;;37.20;20.47;;;;;;;-4.36;83.49;102284.44;5013870;28;20233;-80
2024/01/11 09:58:36;;;;;;;37.43;19.57;;;;;;;-4.12;82.92;102301.50;5024742;28;20209;-79
2024/01/11 10:01:03;;;;;;;25.80;17.07;;;;;;;-4.20;83.87;102312.84;5018425;28;20234;-79
2024/01/11 10:03:29;;;;;;;26.73;16.17;;;;;;;-4.18;84.77;102295.97;5019982;28;20296;-80
2024/01/11 10:05:59;;;;;;;32.13;19.40;;;;;;;-4.48;85.61;102284.47;5028428;28;20261;-80
2024/01/11 10:08:28;;;;;;;28.20;16.10;;;;;;;-4.69;87.04;102278.72;5019437;28;20669;-79
2024/01/11 10:10:54;;;;;;;27.23;17.33;;;;;;;-4.24;87.48;102245.44;5019498;28;20261;-80
2024/01/11 10:13:27;;;;;;;28.73;17.33;;;;;;;-4.48;88.79;102218.19;5019542;28;20199;-80
2024/01/11 10:15:54;;;;;;;27.37;17.97;;;;;;;-4.56;89.51;102191.31;5027684;28;20280;-81
2024/01/11 10:18:23;;;;;;;31.73;17.17;;;;;;;-4.70;91.36;102155.53;5020183;28;20211;-80
2024/01/11 10:20:52;;;;;;;34.83;18.57;;;;;;;-4.53;92.11;102113.41;5021662;28;20286;-80
2024/01/11 10:23:18;;;;;;;36.50;19.43;;;;;;;-4.84;93.03;102095.97;5024352;28;20205;-82
2024/01/11 10:25:46;;;;;;;42.03;18.97;;;;;;;-4.71;93.68;102068.84;5018799;28;20231;-80
2024/01/11 10:28:14;;;;;;;38.30;20.47;;;;;;;-4.65;94.95;102039.56;5033387;28;20229;-81
2024/01/11 10:30:40;;;;;;;42.77;21.80;;;;;;;-4.70;95.83;102025.63;5050221;28;20191;-80
2024/01/11 10:33:08;;;;;;;39.63;20.33;;;;;;;-4.84;97.33;101995.78;5038850;28;20199;-79
2024/01/11 10:35:35;;;;;;;43.23;17.53;;;;;;;-4.81;99.41;101962.91;5039053;28;20223;-81
2024/01/11 10:38:09;;;;;;;42.37;18.33;;;;;;;-4.76;100.00;101932.63;5039009;28;20202;-80
2024/01/11 10:40:35;;;;;;;41.27;19.47;;;;;;;-4.64;100.00;101903.78;5039855;28;20356;-80
2024/01/11 10:43:06;;;;;;;46.67;18.30;;;;;;;-4.47;100.00;101898.91;5039712;28;20221;-80
2024/01/11 10:45:38;;;;;;;37.30;17.63;;;;;;;-4.45;100.00;101888.00;5024827;28;20273;-79
2024/01/11 10:48:07;;;;;;;31.53;14.53;;;;;;;-4.60;100.00;101881.91;5016576;28;20269;-79
2024/01/11 10:50:37;;;;;;;26.80;14.30;;;;;;;-4.56;100.00;101863.50;5015390;28;20661;-79
2024/01/11 10:53:08;;;;;;;28.90;14.67;;;;;;;-4.22;100.00;101855.50;5007451;28;20266;-80
2024/01/11 10:55:35;;;;;;;25.63;14.33;;;;;;;-4.35;100.00;101868.22;5014486;28;20226;-80
2024/01/11 10:58:04;;;;;;;34.53;16.20;;;;;;;-4.42;100.00;101861.84;5022784;28;20692;-80
2024/01/11 11:00:32;;;;;;;32.67;16.43;;;;;;;-4.31;100.00;101873.63;5023479;28;20290;-81
2024/01/11 11:03:00;;;;;;;28.57;16.80;;;;;;;-4.37;100.00;101887.66;5023454;28;20211;-80
2024/01/11 11:05:29;;;;;;;42.67;18.43;;;;;;;-4.15;100.00;101879.72;5021152;28;20223;-79
2024/01/11 11:07:56;;;;;;;36.87;18.27;;;;;;;-4.01;100.00;101900.19;5023497;28;20211;-79
2024/01/11 11:10:25;;;;;;;28.23;16.87;;;;;;;-4.01;100.00;101901.84;5022490;28;20244;-79
2024/01/11 11:12:55;;;;;;;43.43;21.83;;;;;;;-3.84;99.94;101906.38;5023238;28;20214;-79